AirNav   ProFlight Series 2 Aviation Headset
 
 1324 users online  

58FA St Joseph's Hospital Heliport
Riverview, Florida, USA

GOING TO RIVERVIEW?


FAA INFORMATION EFFECTIVE 16 JULY 2020

Location

FAA Identifier: 58FA
Lat/Long: 27-47-13.1000N 082-20-44.6000W
27-47.218333N 082-20.743333W
27.7869722,-82.3457222
(estimated)
Elevation: 53 ft. / 16 m (estimated)
From city: 5 miles SSW of RIVERVIEW, FL
Time zone: UTC -4 (UTC -5 during Standard Time)
Zip code: 33579

Heliport Operations

Heliport use: Private use. Permission required prior to landing
Activation date: 12/2015
Control tower: no
ARTCC: MIAMI CENTER
FSS: SAINT PETERSBURG FLIGHT SERVICE STATION
Attendance: CONTINUOUS
Wind indicator: yes
Segmented circle: no
Lights: SS-SR
Beacon: white-green (lighted land airport)
Operates sunset to sunrise.

Heliport Communications

WX AWOS-3 at TPF (9 nm NW): 118.925 (813-251-6824)
WX AWOS-3 at VDF (14 nm N): 121.125 (813-630-0924)
WX ASOS at SPG (15 nm W): 118.875 (727-821-4334)
WX ASOS at TPA (15 nm NW): PHONE 813-873-7228
WX AWOS-3 at PCM (16 nm NE): 120.025 (813-764-8259)
WX ASOS at PIE (19 nm W): PHONE 727-531-3456

Nearby radio navigation aids

VOR radial/distance  VOR name  Freq  Var
PIEr117/19.4ST PETERSBURG VORTAC116.4005W
LALr235/21.3LAKELAND VORTAC116.0001E
SRQr032/25.6SARASOTA VOR/DME117.0005W

Heliport Services

Runway Information

Helipad H1

Dimensions: 40 x 40 ft. / 12 x 12 m
Surface: concrete
Runway edge lights: low intensity
Traffic pattern: leftleft

Heliport Ownership and Management from official FAA records

Ownership: Privately-owned
Owner: ST JOSEPH'S HOSPITAL SOUTH BAYCARE
6901 SIMMONS LOOP
RIVERVIEW, FL 33607
Phone 813-554-8213
Manager: GILBERT LEON
3001 E DR MARTIN LUTHER KING BLVD
TAMPA, FL 33610
Phone 813-554-8213

Additional Remarks

FOR CD CTC TAMPA APCH AT 813-878-2528

Instrument Procedures

There are no published instrument procedures at 58FA.

Some nearby airports with instrument procedures:

KTPF - Peter O Knight Airport (9 nm NW)
KMCF - MacDill Air Force Base (10 nm W)
KVDF - Tampa Executive Airport (14 nm N)
KSPG - Albert Whitted Airport (15 nm W)
KTPA - Tampa International Airport (15 nm NW)
KPCM - Plant City Airport (16 nm NE)
KPIE - St Pete-Clearwater International Airport (19 nm W)
 
Loc | Ops | Rwys | IFR | FBO | Links
Com | Nav | Svcs | Stats | Notes
Aerial photo
No photo
 
Airport distance calculator
Flying to St Joseph's Hospital Heliport? Find the distance to fly.

From to 58FA

Sunrise and sunset
Times for 07-Aug-2020
 Local
(UTC-4)
 Zulu
(UTC)
Morning civil twilight06:3210:32
Sunrise06:5710:57
Sunset20:1300:13
Evening civil twilight20:3800:38

Current date and time
Zulu (UTC)  07-Aug-2020 14:40:32
Local (UTC-4)  07-Aug-2020 10:40:32
 
METAR
KTPF 
9nm NW 
071415Z AUTO 20003KT 10SM OVC100 31/28 A3010 RMK AO2
KMCF 
10nm NW 
071356Z AUTO 00000KT 10SM FEW190 30/25 A3009 RMK AO2 SLP192 T02970250 FZRANO $
KVDF 
14nm N 
071415Z AUTO 00000KT 10SM CLR 30/25 A3010 RMK AO2
KTPA 
15nm NW 
071353Z 00000KT 10SM SCT025 SCT250 30/23 A3010 RMK AO2 SLP191 T03000233
KSPG 
15nm W 
071353Z 16006KT 10SM CLR 29/26 A3007 RMK AO2 SLP183 T02890261
KPCM 
16nm NE 
071415Z AUTO 23003KT 10SM CLR 30/27 A3012 RMK AO2
KPIE 
20nm NW 
071407Z 00000KT 10SM SCT022 BKN028 31/26 A3009 RMK AO2 T03110261
TAF
KMCF 
10nm NW 
071200Z 0712/0818 VRB06KT 9999 FEW030 FEW120 QNH3003INS BECMG 0717/0718 25009KT 9999 VCTS SCT050CB QNH2998INS BECMG 0721/0722 VRB06KT 9999 NSW FEW040 QNH2999INS BECMG 0815/0816 27009KT 9999 VCTS SCT035CB QNH3010INS TEMPO 0816/0818 VRB10G15KT 9000 -TSRA SCT035CB TX33/0718Z TN26/0808Z
KTPA 
15nm NW 
071125Z 0712/0818 VRB03KT P6SM FEW025 SCT250 FM071500 25006KT P6SM VCTS SCT030CB BKN250 FM072100 28007KT P6SM SCT035 SCT130 BKN250 FM080100 VRB03KT P6SM FEW030 SCT250 FM081600 28006KT P6SM SCT030 SCT250
KPIE 
20nm NW 
071125Z 0712/0812 VRB03KT P6SM SCT025 SCT250 FM071500 VRB05KT P6SM VCTS SCT035CB BKN250 FM072000 30007KT P6SM SCT035 SCT130 BKN250 FM080100 VRB03KT P6SM FEW030 SCT250
NOTAMs
Click for the latest NOTAMs
NOTAMs are issued by the DoD/FAA and will open in a separate window not controlled by AirNav.

 

 
 

Would you like to see your business listed on this page?

 If your business provides an interesting product or service to pilots, flight crews, aircraft, or users of the St Joseph's Hospital Heliport, you should consider listing it here.  To start the listing process, click on the button below
 
Add a business
 

Other Pages about St Joseph's Hospital Heliport

Update a link
 
Copyright © AirNav, LLC. All rights reserved. Privacy Policy  Contact